Pagrindinis puslapis
METAR-TAF:

METAR-TAF

Oro uostai :

Tunisas, Tunisas

platuma: 36-50N, ilguma: 010-14E, Aukštis: 3 m

Dabartinis oras

Ataskaita buvo paskelbta 20 minutes, ne 10:30 UTC
Vėjas 13 kt iš Rytų/Pietryčių, svyruoja nuo Rytų ir Pietų/Pietryčių
Temperatūra 31°C
Drėgmė 55%
Slėgis 1017 hPa
Matomumas 10 km arba daugiau
Mažai debesys ne aukštis 2600 ft

METAR: DTTA 211030Z 12013KT 080V160 9999 FEW026 31/21 Q1017

Laikas: 11:50 (10:50 UTC)

Prognozė

Ataskaita buvo paskelbta 5 valandos ir 50 minutes, ne 05:00 UTC
Prognozė galioja nuo 21 metu 06 UTC su 22 metu 06 UTC
Vėjas 6 kt iš Rytų/Pietryčių
Matomumas 10 km arba daugiau
Išsisklaidę debesys ne aukštis 2600 ft
Tapsmas
nuo 21 metu 08 UTC su 21 metu 10 UTC
Vėjas 15 kt iš Pietų/Pietryčių

TAF: DTTA 210500Z 2106/2206 12006KT 9999 SCT026 BECMG 2108/2110 15015KT

Orai ataskaitas ir orų prognozės (METAR, TAF).

turimą stotys yra geltonos ir raudonos taškus žemėlapyje.

Perkelti pele per norėdami pamatyti stoties vardą.

Tada spustelėkite, norėdami matyti oro stebėjimo ir prognozės.

Norėdami pakeisti žemėlapį: spustelėkite ant žalios mygtukų su juodo kryžiaus žemyn,; žalią mygtuką su brūkšneliu, jei norite nutolinti; arba žalių rodyklių gretimoms žemėlapius.


METAR-TAF: